Time;durP1;ratioP1;P1;durP2;ratioP2;P2;SDS_P1;SDS_P2;PMS_P1;PMS_P2;Temp;Humidity;BMP_temperature;BMP_pressure;BME280_temperature;BME280_humidity;BME280_pressure;Samples;Min_cycle;Max_cycle;Signal;HPM_P1;HPM_P2
2021/05/01 00:01:46;;;;;;;75.45;32.03;;;;;;;3.17;100.00;101495.56;5182475;28;20495;-82
2021/05/01 00:04:17;;;;;;;42.25;21.90;;;;;;;2.68;100.00;101486.41;5182521;28;20015;-81
2021/05/01 00:06:47;;;;;;;40.22;20.52;;;;;;;2.31;100.00;101491.41;5183944;28;20028;-82
2021/05/01 00:09:18;;;;;;;43.72;22.00;;;;;;;2.05;100.00;101495.69;5180093;28;20076;-82
2021/05/01 00:11:48;;;;;;;43.20;20.80;;;;;;;1.86;100.00;101483.69;5169588;28;20077;-82
2021/05/01 00:14:19;;;;;;;51.05;23.60;;;;;;;1.71;100.00;101488.16;5168127;28;20027;-82
2021/05/01 00:16:50;;;;;;;51.75;22.80;;;;;;;1.64;100.00;101485.00;5186554;28;20076;-82
2021/05/01 00:19:21;;;;;;;50.88;24.60;;;;;;;1.58;100.00;101485.38;5178699;28;20022;-82
2021/05/01 00:21:51;;;;;;;47.90;22.00;;;;;;;1.48;100.00;101481.59;5169392;28;20018;-82
2021/05/01 00:24:22;;;;;;;47.63;22.85;;;;;;;1.38;100.00;101483.09;5181113;28;20074;-81
2021/05/01 00:26:52;;;;;;;43.17;19.67;;;;;;;1.27;100.00;101476.66;5169599;28;20014;-81
2021/05/01 00:29:22;;;;;;;42.53;20.58;;;;;;;1.19;100.00;101478.03;5169421;28;20069;-82
2021/05/01 00:31:53;;;;;;;46.63;21.83;;;;;;;1.11;100.00;101473.22;5175540;28;20535;-81
2021/05/01 00:34:23;;;;;;;40.33;21.17;;;;;;;1.03;100.00;101481.59;5189663;28;20109;-81
2021/05/01 00:36:54;;;;;;;45.42;20.73;;;;;;;0.93;100.00;101480.41;5181226;28;20029;-81
2021/05/01 00:39:24;;;;;;;45.58;20.23;;;;;;;0.86;100.00;101481.72;5184004;28;20033;-82
2021/05/01 00:41:55;;;;;;;43.85;21.67;;;;;;;0.78;100.00;101483.94;5191172;28;20033;-82
2021/05/01 00:44:25;;;;;;;50.65;23.98;;;;;;;0.74;100.00;101482.41;5175523;28;20036;-82
2021/05/01 00:46:56;;;;;;;54.20;23.98;;;;;;;0.70;100.00;101473.84;5187588;28;20030;-81
2021/05/01 00:49:26;;;;;;;1999.90;411.00;;;;;;;0.74;100.00;101477.97;5173340;28;20029;-82
2021/05/01 00:51:57;;;;;;;75.82;33.22;;;;;;;0.87;100.00;101486.06;5187480;28;20033;-82
2021/05/01 00:54:28;;;;;;;47.22;23.23;;;;;;;0.84;100.00;101482.72;5167343;28;20065;-82
2021/05/01 00:56:58;;;;;;;45.65;21.50;;;;;;;0.87;100.00;101479.94;5168691;28;20026;-82
2021/05/01 00:59:29;;;;;;;59.78;27.17;;;;;;;1.08;100.00;101481.31;5168536;28;20030;-81
2021/05/01 01:02:00;;;;;;;48.67;23.30;;;;;;;1.53;100.00;101488.31;5184986;28;20468;-82
2021/05/01 01:04:31;;;;;;;38.42;19.52;;;;;;;1.72;100.00;101490.69;5188749;28;20033;-81
2021/05/01 01:07:02;;;;;;;37.60;19.75;;;;;;;1.66;100.00;101484.94;5176007;28;20021;-82
2021/05/01 01:09:32;;;;;;;38.15;18.83;;;;;;;1.46;100.00;101486.13;5186099;28;20129;-82
2021/05/01 01:12:08;;;;;;;47.75;23.60;;;;;;;1.20;100.00;101475.28;5179464;28;20886;-81
2021/05/01 01:14:38;;;;;;;48.97;22.60;;;;;;;1.02;100.00;101479.88;5164899;28;20030;-82
2021/05/01 01:17:09;;;;;;;58.55;26.20;;;;;;;0.90;100.00;101477.94;5159046;28;20038;-82
2021/05/01 01:19:40;;;;;;;60.50;24.88;;;;;;;0.86;100.00;101472.94;5185605;28;20017;-80
2021/05/01 01:22:13;;;;;;;59.78;25.98;;;;;;;0.81;100.00;101472.38;5176607;28;20029;-79
2021/05/01 01:24:47;;;;;;;61.42;27.58;;;;;;;0.73;100.00;101463.06;5188370;28;20041;-80
2021/05/01 01:27:18;;;;;;;56.17;24.88;;;;;;;0.68;100.00;101461.63;5190575;28;20464;-80
2021/05/01 01:29:49;;;;;;;51.28;23.58;;;;;;;0.57;100.00;101462.25;5191379;28;20033;-80
2021/05/01 01:32:19;;;;;;;49.90;23.10;;;;;;;0.43;100.00;101473.59;5173405;28;20062;-79
2021/05/01 01:34:50;;;;;;;52.88;23.83;;;;;;;0.38;100.00;101466.88;5184029;28;20013;-81
2021/05/01 01:37:20;;;;;;;53.42;23.98;;;;;;;0.33;100.00;101463.63;5202481;28;20038;-80
2021/05/01 01:39:51;;;;;;;55.85;25.13;;;;;;;0.26;100.00;101465.75;5185558;28;20064;-82
2021/05/01 01:42:22;;;;;;;55.28;25.30;;;;;;;0.21;100.00;101468.66;5194104;28;20080;-82
2021/05/01 01:44:53;;;;;;;62.00;26.95;;;;;;;0.13;100.00;101470.84;5187529;28;20034;-80
2021/05/01 01:47:24;;;;;;;57.40;25.77;;;;;;;0.04;100.00;101466.06;5189657;28;20121;-82
2021/05/01 01:49:55;;;;;;;61.17;28.63;;;;;;;0.00;100.00;101461.94;5175749;28;20054;-79
2021/05/01 01:52:25;;;;;;;79.30;34.80;;;;;;;0.39;100.00;101465.91;5180329;28;20025;-83
2021/05/01 01:54:56;;;;;;;72.57;32.58;;;;;;;0.78;100.00;101468.09;5162652;28;20040;-80
2021/05/01 01:57:27;;;;;;;57.80;27.05;;;;;;;0.75;100.00;101462.97;5195411;28;20030;-81
2021/05/01 01:59:57;;;;;;;65.70;27.75;;;;;;;0.82;100.00;101463.50;5179909;28;20057;-79
2021/05/01 02:02:28;;;;;;;149.73;51.38;;;;;;;1.10;100.00;101465.38;5187325;28;20447;-81
2021/05/01 02:04:58;;;;;;;201.88;69.20;;;;;;;2.56;100.00;101473.94;5185082;28;20030;-79
2021/05/01 02:07:29;;;;;;;124.97;47.47;;;;;;;2.33;100.00;101473.63;5176363;28;20402;-82
2021/05/01 02:10:00;;;;;;;58.95;26.45;;;;;;;1.76;100.00;101467.56;5171920;28;20040;-80
2021/05/01 02:12:32;;;;;;;46.70;21.80;;;;;;;1.32;100.00;101464.97;5167477;28;20034;-80
2021/05/01 02:15:06;;;;;;;102.65;28.67;;;;;;;1.02;100.00;101464.03;5181123;28;20476;-80
2021/05/01 02:17:42;;;;;;;57.13;25.83;;;;;;;0.90;100.00;101456.81;5166015;28;20026;-80
2021/05/01 02:20:14;;;;;;;56.55;24.98;;;;;;;0.72;100.00;101466.66;5179174;28;20134;-78
2021/05/01 02:22:45;;;;;;;50.97;23.80;;;;;;;0.52;100.00;101462.50;5179255;28;20030;-79
2021/05/01 02:25:16;;;;;;;62.13;26.00;;;;;;;0.46;100.00;101451.47;5188778;28;20052;-80
2021/05/01 02:27:47;;;;;;;50.58;23.15;;;;;;;0.35;100.00;101459.97;5174607;28;20022;-79
2021/05/01 02:30:21;;;;;;;49.92;23.65;;;;;;;0.19;100.00;101465.22;5179462;28;20456;-80
2021/05/01 02:32:53;;;;;;;54.17;24.23;;;;;;;0.09;100.00;101460.56;5172813;28;20021;-82
2021/05/01 02:35:29;;;;;;;54.38;24.52;;;;;;;0.01;100.00;101460.97;5181305;28;20037;-79
2021/05/01 02:38:00;;;;;;;50.78;23.05;;;;;;;-0.06;100.00;101459.59;5184687;28;20032;-81
2021/05/01 02:40:32;;;;;;;1999.90;481.80;;;;;;;0.06;100.00;101460.75;5182963;28;20030;-79
2021/05/01 02:43:05;;;;;;;87.13;35.38;;;;;;;0.66;100.00;101459.09;5192187;28;20030;-80
2021/05/01 02:45:36;;;;;;;53.80;24.92;;;;;;;0.71;100.00;101458.84;5176630;28;20053;-79
2021/05/01 02:48:08;;;;;;;52.08;22.33;;;;;;;0.64;100.00;101458.31;5168683;28;20022;-80
2021/05/01 02:50:39;;;;;;;55.67;25.70;;;;;;;1.10;100.00;101449.50;5184126;28;20021;-79
2021/05/01 02:53:10;;;;;;;43.70;21.58;;;;;;;1.07;100.00;101453.19;5180953;28;20045;-80
2021/05/01 02:55:41;;;;;;;43.63;21.95;;;;;;;0.80;100.00;101458.28;5189373;28;20037;-78
2021/05/01 02:58:11;;;;;;;49.97;22.52;;;;;;;0.58;100.00;101452.53;5174363;28;20027;-79
2021/05/01 03:00:42;;;;;;;58.97;26.20;;;;;;;0.47;100.00;101447.88;5195309;28;20535;-80
2021/05/01 03:03:12;;;;;;;64.18;30.10;;;;;;;0.42;100.00;101444.63;5183131;28;20033;-81
2021/05/01 03:05:42;;;;;;;86.07;35.30;;;;;;;0.56;100.00;101439.44;5187333;28;20033;-81
2021/05/01 03:08:13;;;;;;;63.17;27.60;;;;;;;0.69;100.00;101440.41;5184752;28;20044;-80
2021/05/01 03:10:44;;;;;;;49.28;22.52;;;;;;;0.83;100.00;101430.84;5187432;28;20029;-79
2021/05/01 03:13:14;;;;;;;52.17;21.67;;;;;;;0.87;100.00;101427.09;5171478;28;20087;-80
2021/05/01 03:15:45;;;;;;;56.90;26.42;;;;;;;0.88;100.00;101434.06;5179806;28;20030;-79
2021/05/01 03:18:15;;;;;;;55.25;24.90;;;;;;;0.92;100.00;101428.53;5178118;28;20037;-79
2021/05/01 03:20:45;;;;;;;124.03;45.13;;;;;;;0.90;100.00;101427.75;5181042;28;20384;-81
2021/05/01 03:23:16;;;;;;;69.30;30.73;;;;;;;1.00;100.00;101430.69;5171335;28;20065;-79
2021/05/01 03:25:47;;;;;;;44.65;22.63;;;;;;;0.94;100.00;101431.06;5174398;28;20034;-81
2021/05/01 03:28:18;;;;;;;41.88;19.85;;;;;;;0.82;100.00;101437.09;5171253;28;20301;-80
2021/05/01 03:30:49;;;;;;;41.75;20.23;;;;;;;0.65;100.00;101438.03;5169996;28;20429;-80
2021/05/01 03:33:20;;;;;;;44.45;21.67;;;;;;;0.46;100.00;101439.09;5184639;28;20101;-79
2021/05/01 03:35:51;;;;;;;47.85;22.13;;;;;;;0.31;100.00;101428.56;5183808;28;20112;-80
2021/05/01 03:38:22;;;;;;;51.00;23.48;;;;;;;0.15;100.00;101434.69;5171545;28;20050;-80
2021/05/01 03:40:52;;;;;;;48.83;21.85;;;;;;;-0.04;100.00;101432.22;5183573;28;20027;-79
2021/05/01 03:43:23;;;;;;;49.88;21.77;;;;;;;-0.15;100.00;101428.44;5180473;28;20026;-81
2021/05/01 03:45:55;;;;;;;46.00;21.38;;;;;;;-0.23;100.00;101423.59;5174544;28;20090;-80
2021/05/01 03:48:25;;;;;;;44.33;20.23;;;;;;;-0.27;100.00;101433.44;5172114;28;20049;-78
2021/05/01 03:50:56;;;;;;;62.75;22.17;;;;;;;-0.28;100.00;101433.53;5169697;28;20030;-81
2021/05/01 03:53:26;;;;;;;47.95;21.77;;;;;;;-0.20;100.00;101433.13;5172016;28;20446;-78
2021/05/01 03:55:57;;;;;;;51.05;20.85;;;;;;;-0.19;100.00;101430.41;5170050;28;20610;-79
2021/05/01 03:58:28;;;;;;;52.45;21.98;;;;;;;-0.18;100.00;101436.53;5170172;28;20086;-80
2021/05/01 04:00:59;;;;;;;42.90;21.00;;;;;;;-0.09;100.00;101433.41;5181899;28;20168;-80
2021/05/01 04:03:29;;;;;;;47.22;21.73;;;;;;;-0.08;100.00;101435.94;5184834;28;20033;-80
2021/05/01 04:06:00;;;;;;;55.35;22.33;;;;;;;0.07;100.00;101438.69;5185650;28;20019;-79
2021/05/01 04:08:30;;;;;;;55.05;22.33;;;;;;;0.15;100.00;101431.19;5167687;28;20080;-79
2021/05/01 04:11:01;;;;;;;106.20;27.13;;;;;;;0.11;100.00;101433.16;5179371;28;20037;-79
2021/05/01 04:13:32;;;;;;;111.43;29.98;;;;;;;0.10;100.00;101434.09;5176564;28;20475;-80
2021/05/01 04:16:02;;;;;;;156.43;32.33;;;;;;;0.03;100.00;101427.44;5189248;28;20464;-82
2021/05/01 04:18:33;;;;;;;147.98;30.45;;;;;;;-0.03;100.00;101430.44;5177391;28;20026;-80
2021/05/01 04:21:04;;;;;;;285.35;35.53;;;;;;;-0.08;100.00;101429.81;5188136;28;20028;-80
2021/05/01 04:23:34;;;;;;;229.25;34.38;;;;;;;-0.15;100.00;101420.53;5170323;28;20396;-79
2021/05/01 04:26:05;;;;;;;119.65;35.65;;;;;;;-0.13;100.00;101429.22;5181537;28;20022;-80
2021/05/01 04:28:35;;;;;;;269.80;71.65;;;;;;;1.34;100.00;101434.81;5184463;28;20035;-79
2021/05/01 04:31:06;;;;;;;254.85;43.33;;;;;;;1.86;100.00;101430.78;5152177;28;20065;-80
2021/05/01 04:33:37;;;;;;;217.73;30.08;;;;;;;1.37;100.00;101424.09;5184521;28;20071;-80
2021/05/01 04:36:07;;;;;;;171.48;28.92;;;;;;;1.02;100.00;101429.69;5180059;28;20037;-81
2021/05/01 04:38:38;;;;;;;156.75;29.15;;;;;;;0.71;100.00;101435.91;5194236;28;20100;-82
2021/05/01 04:41:08;;;;;;;113.88;38.85;;;;;;;1.53;100.00;101440.72;5185791;28;20061;-82
2021/05/01 04:43:41;;;;;;;256.25;34.58;;;;;;;1.95;100.00;101441.63;5170945;28;20057;-81
2021/05/01 04:46:14;;;;;;;248.05;28.13;;;;;;;1.45;100.00;101439.47;5170408;28;20042;-81
2021/05/01 04:48:45;;;;;;;192.77;30.73;;;;;;;1.06;100.00;101435.66;5170507;28;20101;-82
2021/05/01 04:51:18;;;;;;;172.80;28.10;;;;;;;0.84;100.00;101440.47;5170692;28;20057;-80
2021/05/01 04:53:48;;;;;;;223.43;31.85;;;;;;;0.64;100.00;101445.09;5185427;28;20034;-82
2021/05/01 04:56:18;;;;;;;233.07;33.50;;;;;;;0.50;100.00;101451.19;5182066;28;20034;-81
2021/05/01 04:58:50;;;;;;;162.88;35.20;;;;;;;0.52;100.00;101456.38;5174288;28;20053;-82
2021/05/01 05:01:21;;;;;;;166.65;33.60;;;;;;;0.59;100.00;101452.44;5180585;28;20441;-81
2021/05/01 05:03:52;;;;;;;168.27;35.95;;;;;;;0.69;100.00;101464.19;5169320;28;20032;-81
2021/05/01 05:06:22;;;;;;;149.15;33.75;;;;;;;0.74;100.00;101467.41;5180962;28;20053;-81
2021/05/01 05:08:53;;;;;;;170.38;33.00;;;;;;;0.81;100.00;101465.28;5172016;28;20033;-81
2021/05/01 05:11:23;;;;;;;123.32;32.25;;;;;;;0.88;100.00;101469.25;5180870;28;20164;-80
2021/05/01 05:13:54;;;;;;;182.70;31.67;;;;;;;0.98;100.00;101472.22;5169763;28;20505;-81
2021/05/01 05:16:24;;;;;;;257.30;35.03;;;;;;;1.06;100.00;101477.94;5167714;28;20180;-81
2021/05/01 05:18:56;;;;;;;129.57;32.05;;;;;;;1.11;100.00;101482.94;5181751;28;20097;-82
2021/05/01 05:21:26;;;;;;;136.07;31.48;;;;;;;1.19;100.00;101476.25;5181514;28;20032;-81
2021/05/01 05:23:57;;;;;;;183.27;34.40;;;;;;;1.24;100.00;101481.25;5168786;28;20528;-81
2021/05/01 05:26:27;;;;;;;150.35;32.63;;;;;;;1.37;100.00;101481.41;5168149;28;20121;-80
2021/05/01 05:28:58;;;;;;;161.15;31.30;;;;;;;1.40;100.00;101482.03;5166590;28;20472;-81
2021/05/01 05:31:28;;;;;;;188.07;31.25;;;;;;;1.49;100.00;101494.72;5171360;28;20030;-80
2021/05/01 05:33:59;;;;;;;145.45;29.85;;;;;;;1.61;100.00;101494.91;5186828;28;20018;-80
2021/05/01 05:36:29;;;;;;;93.72;31.17;;;;;;;1.77;100.00;101490.41;5180409;28;20035;-79
2021/05/01 05:39:00;;;;;;;107.88;31.80;;;;;;;1.85;100.00;101493.41;5167524;28;20034;-80
2021/05/01 05:41:31;;;;;;;102.45;31.23;;;;;;;1.90;100.00;101487.84;5187940;28;20535;-80
2021/05/01 05:44:03;;;;;;;89.55;26.38;;;;;;;2.07;100.00;101485.03;5188117;28;20044;-80
2021/05/01 05:46:34;;;;;;;111.70;29.20;;;;;;;2.20;100.00;101488.59;5179482;28;20479;-80
2021/05/01 05:49:05;;;;;;;428.10;159.88;;;;;;;2.40;100.00;101491.75;5167957;28;20037;-81
2021/05/01 05:51:36;;;;;;;71.32;32.60;;;;;;;2.90;100.00;101483.19;5179600;28;20033;-81
2021/05/01 05:54:07;;;;;;;159.23;27.65;;;;;;;2.64;100.00;101482.25;5175210;28;20040;-81
2021/05/01 05:56:37;;;;;;;99.38;27.88;;;;;;;2.73;100.00;101480.81;5176029;28;20030;-81
2021/05/01 05:59:08;;;;;;;78.18;26.55;;;;;;;3.08;100.00;101486.44;5170246;28;20033;-81
2021/05/01 06:01:40;;;;;;;73.32;25.13;;;;;;;3.34;100.00;101482.03;5168354;28;20025;-78
2021/05/01 06:04:16;;;;;;;44.72;23.23;;;;;;;3.52;100.00;101475.47;5187428;28;20372;-78
2021/05/01 06:06:54;;;;;;;57.75;22.45;;;;;;;3.66;100.00;101477.16;5174036;28;20033;-79
2021/05/01 06:09:26;;;;;;;75.03;26.10;;;;;;;3.76;100.00;101472.03;5188137;28;20022;-79
2021/05/01 06:11:59;;;;;;;85.22;24.27;;;;;;;3.72;100.00;101459.97;5169806;28;20030;-78
2021/05/01 06:14:30;;;;;;;56.22;25.02;;;;;;;4.05;100.00;101467.34;5168016;28;20022;-78
2021/05/01 06:17:01;;;;;;;52.88;24.48;;;;;;;4.55;100.00;101465.50;5187547;28;20029;-79
2021/05/01 06:19:33;;;;;;;44.15;22.13;;;;;;;4.88;100.00;101467.50;5185051;28;20089;-79
2021/05/01 06:22:03;;;;;;;52.67;25.25;;;;;;;4.93;100.00;101470.66;5168422;28;20049;-80
2021/05/01 06:24:34;;;;;;;45.88;24.10;;;;;;;5.21;100.00;101474.75;5166509;28;20026;-79
2021/05/01 06:27:05;;;;;;;44.33;23.23;;;;;;;5.42;100.00;101475.78;5164906;28;20105;-79
2021/05/01 06:29:41;;;;;;;52.17;24.40;;;;;;;5.24;100.00;101471.84;5166660;28;20034;-82
2021/05/01 06:32:14;;;;;;;53.65;26.80;;;;;;;5.16;100.00;101472.41;5169456;28;20404;-81
2021/05/01 06:34:47;;;;;;;55.78;27.77;;;;;;;5.28;100.00;101467.16;5181839;28;20022;-78
2021/05/01 06:37:19;;;;;;;60.45;30.50;;;;;;;5.29;100.00;101467.03;5168907;28;20540;-77
2021/05/01 06:39:51;;;;;;;59.92;31.63;;;;;;;5.32;100.00;101468.59;5167530;28;20549;-78
2021/05/01 06:42:27;;;;;;;63.60;29.17;;;;;;;5.46;100.00;101469.22;5184788;28;20075;-80
2021/05/01 06:45:10;;;;;;;58.08;29.27;;;;;;;5.51;100.00;101476.03;5152125;28;20049;-79
2021/05/01 06:47:50;;;;;;;71.65;33.50;;;;;;;5.80;100.00;101471.94;5175746;28;20046;-78
2021/05/01 06:50:22;;;;;;;59.63;29.50;;;;;;;5.96;100.00;101468.97;5178359;28;20163;-77
2021/05/01 06:52:54;;;;;;;59.13;29.52;;;;;;;6.15;100.00;101463.03;5176032;28;20519;-77
2021/05/01 06:55:27;;;;;;;67.45;31.25;;;;;;;6.37;100.00;101470.97;5178323;28;20030;-79
2021/05/01 06:58:00;;;;;;;57.38;30.33;;;;;;;6.64;100.00;101472.38;5164941;28;20022;-79
2021/05/01 07:00:31;;;;;;;61.65;31.60;;;;;;;6.89;100.00;101472.06;5177599;28;20049;-81
2021/05/01 07:03:05;;;;;;;63.08;30.38;;;;;;;7.07;100.00;101479.50;5175911;28;20030;-79
2021/05/01 07:05:35;;;;;;;56.42;30.05;;;;;;;7.37;100.00;101479.56;5167926;28;20022;-79
2021/05/01 07:08:07;;;;;;;51.80;28.23;;;;;;;7.63;100.00;101481.84;5164802;28;20024;-78
2021/05/01 07:10:37;;;;;;;60.88;31.00;;;;;;;7.97;100.00;101485.97;5171638;28;20034;-79
2021/05/01 07:13:13;;;;;;;58.30;28.67;;;;;;;8.13;100.00;101485.47;5200675;28;20026;-78
2021/05/01 07:15:44;;;;;;;57.83;28.15;;;;;;;8.28;100.00;101493.97;5164491;28;20030;-78
2021/05/01 07:18:15;;;;;;;55.30;26.70;;;;;;;8.28;100.00;101493.97;5166664;28;20073;-78
2021/05/01 07:20:46;;;;;;;46.40;25.38;;;;;;;8.52;100.00;101497.16;5186216;28;20036;-79
2021/05/01 07:23:17;;;;;;;49.67;24.15;;;;;;;8.76;100.00;101499.47;5186994;28;20026;-76
2021/05/01 07:25:47;;;;;;;40.03;23.60;;;;;;;9.00;100.00;101500.91;5178527;28;20030;-79
2021/05/01 07:28:23;;;;;;;47.88;22.25;;;;;;;9.00;100.00;101504.44;5181599;28;20049;-78
2021/05/01 07:30:56;;;;;;;44.95;22.65;;;;;;;9.18;100.00;101503.72;5168534;28;20073;-79
2021/05/01 07:33:30;;;;;;;39.60;18.85;;;;;;;9.38;100.00;101504.56;5181686;28;20061;-79
2021/05/01 07:36:11;;;;;;;33.90;18.77;;;;;;;9.44;100.00;101504.84;5182500;28;20410;-78
2021/05/01 07:38:43;;;;;;;32.20;17.45;;;;;;;9.52;100.00;101499.59;5178778;28;20026;-80
2021/05/01 07:41:16;;;;;;;21.10;11.70;;;;;;;9.85;100.00;101500.09;5171853;28;20108;-80
2021/05/01 07:43:49;;;;;;;21.55;11.55;;;;;;;9.76;100.00;101488.41;5187984;28;20073;-80
2021/05/01 07:46:23;;;;;;;26.67;12.45;;;;;;;9.79;100.00;101487.31;5182770;28;20046;-81
2021/05/01 07:48:54;;;;;;;21.50;11.40;;;;;;;10.00;100.00;101493.28;5167253;28;20026;-80
2021/05/01 07:51:25;;;;;;;18.80;10.02;;;;;;;10.18;100.00;101487.13;5191522;28;20109;-80
2021/05/01 07:53:55;;;;;;;22.40;9.45;;;;;;;10.32;100.00;101482.16;5170854;28;20109;-80
2021/05/01 07:56:26;;;;;;;18.25;8.63;;;;;;;10.22;100.00;101484.00;5176393;28;20028;-80
2021/05/01 07:58:58;;;;;;;16.55;9.50;;;;;;;10.04;100.00;101488.44;5165945;28;20026;-81
2021/05/01 08:01:29;;;;;;;20.20;8.75;;;;;;;10.01;100.00;101478.03;5177956;28;20544;-79
2021/05/01 08:04:00;;;;;;;22.95;10.52;;;;;;;10.10;100.00;101475.31;5173136;28;20112;-78
2021/05/01 08:06:30;;;;;;;18.10;10.95;;;;;;;10.21;100.00;101476.13;5187480;28;20500;-77
2021/05/01 08:09:01;;;;;;;20.30;9.50;;;;;;;10.37;100.00;101474.50;5179155;28;20018;-77
2021/05/01 08:11:32;;;;;;;23.38;10.23;;;;;;;10.53;100.00;101471.16;5179868;28;20033;-78
2021/05/01 08:14:02;;;;;;;18.58;9.98;;;;;;;10.64;100.00;101467.41;5176599;28;20108;-78
2021/05/01 08:16:34;;;;;;;22.77;10.07;;;;;;;10.69;100.00;101459.75;5190572;28;20085;-81
2021/05/01 08:19:05;;;;;;;23.83;14.60;;;;;;;10.89;100.00;101468.50;5187704;28;20488;-78
2021/05/01 08:21:35;;;;;;;30.42;15.35;;;;;;;10.93;100.00;101455.63;5182963;28;20022;-76
2021/05/01 08:24:07;;;;;;;30.38;18.23;;;;;;;10.83;100.00;101458.41;5167350;28;20030;-77
2021/05/01 08:26:37;;;;;;;22.50;11.93;;;;;;;10.80;100.00;101459.56;5166699;28;20029;-79
2021/05/01 08:29:08;;;;;;;23.13;10.95;;;;;;;10.95;100.00;101459.88;5182088;28;20022;-78
2021/05/01 08:31:38;;;;;;;26.73;12.57;;;;;;;10.94;100.00;101452.78;5168121;28;20030;-77
2021/05/01 08:34:09;;;;;;;20.48;10.10;;;;;;;10.83;100.00;101443.13;5181550;28;20110;-78
2021/05/01 08:36:39;;;;;;;17.08;9.73;;;;;;;11.00;100.00;101449.50;5186034;28;20125;-77
2021/05/01 08:39:10;;;;;;;24.58;10.57;;;;;;;11.18;100.00;101452.16;5183807;28;20040;-77
2021/05/01 08:41:40;;;;;;;18.98;9.30;;;;;;;11.15;100.00;101456.03;5174380;28;20030;-77
2021/05/01 08:44:11;;;;;;;15.20;8.77;;;;;;;10.92;100.00;101454.78;5172840;28;20097;-78
2021/05/01 08:46:45;;;;;;;20.17;9.88;;;;;;;11.18;100.00;101448.63;5186568;28;20406;-80
2021/05/01 08:49:16;;;;;;;22.38;11.50;;;;;;;11.24;100.00;101456.06;5171422;28;20040;-78
2021/05/01 08:51:46;;;;;;;23.55;11.23;;;;;;;11.12;98.65;101458.16;5175344;28;20038;-81
2021/05/01 08:54:17;;;;;;;26.70;12.75;;;;;;;11.08;93.52;101459.47;5165664;28;20029;-79
2021/05/01 08:56:47;;;;;;;19.67;10.48;;;;;;;11.26;100.00;101454.94;5165966;28;20029;-80
2021/05/01 08:59:19;;;;;;;18.40;11.30;;;;;;;11.36;100.00;101457.53;5167125;28;20480;-79
2021/05/01 09:01:50;;;;;;;20.73;12.15;;;;;;;11.67;85.00;101464.09;5165661;28;20026;-79
2021/05/01 09:04:21;;;;;;;19.58;12.18;;;;;;;11.89;77.15;101472.66;5174070;28;20117;-78
2021/05/01 09:06:52;;;;;;;30.42;19.23;;;;;;;12.18;82.65;101464.25;5171946;28;20125;-79
2021/05/01 09:09:32;;;;;;;17.90;11.48;;;;;;;12.30;75.31;101472.84;5185490;28;20033;-81
2021/05/01 09:12:03;;;;;;;20.92;12.25;;;;;;;12.47;80.00;101477.31;5183946;28;20026;-81
2021/05/01 09:14:36;;;;;;;22.58;14.90;;;;;;;12.20;77.84;101483.78;5185196;28;20030;-81
2021/05/01 09:17:07;;;;;;;19.60;12.38;;;;;;;12.29;83.90;101480.09;5165176;28;20484;-82
2021/05/01 09:19:40;;;;;;;17.73;12.85;;;;;;;12.38;74.77;101480.97;5177063;28;20108;-79
2021/05/01 09:22:13;;;;;;;20.35;11.18;;;;;;;12.68;76.74;101483.06;5183057;28;20084;-80
2021/05/01 09:24:44;;;;;;;14.85;10.98;;;;;;;12.89;64.82;101476.38;5171627;28;20025;-80
2021/05/01 09:27:17;;;;;;;19.13;11.05;;;;;;;12.59;64.80;101478.66;5191864;28;20029;-79
2021/05/01 09:29:47;;;;;;;20.38;11.57;;;;;;;12.25;64.78;101477.88;5190366;28;20437;-80
2021/05/01 09:32:22;;;;;;;22.80;12.90;;;;;;;11.76;75.79;101483.81;5178152;28;20128;-79
2021/05/01 09:34:54;;;;;;;22.03;13.87;;;;;;;11.58;77.27;101481.19;5169530;28;20411;-79
2021/05/01 09:37:27;;;;;;;17.75;13.23;;;;;;;11.80;77.54;101485.19;5168533;28;20089;-79
2021/05/01 09:39:59;;;;;;;18.83;13.32;;;;;;;11.96;81.55;101487.16;5182588;28;20026;-79
2021/05/01 09:42:32;;;;;;;21.70;12.73;;;;;;;12.29;69.92;101485.47;5170311;28;20479;-80
2021/05/01 09:45:09;;;;;;;19.25;13.13;;;;;;;12.57;83.74;101474.47;5180178;28;20479;-79
2021/05/01 09:47:48;;;;;;;18.77;10.52;;;;;;;12.50;58.28;101477.00;5179570;28;20026;-79
2021/05/01 09:50:26;;;;;;;15.32;11.23;;;;;;;12.29;63.54;101476.56;5169304;28;20395;-78
2021/05/01 09:53:00;;;;;;;19.08;10.63;;;;;;;12.11;64.90;101468.59;5190219;28;20029;-79
2021/05/01 09:55:45;;;;;;;19.87;11.20;;;;;;;12.25;67.06;101467.13;5189126;28;20102;-81
2021/05/01 09:58:19;;;;;;;17.43;10.93;;;;;;;12.34;66.33;101464.28;5173988;28;20472;-79
2021/05/01 10:00:52;;;;;;;19.63;11.43;;;;;;;12.76;71.01;101467.97;5177179;28;20502;-85
2021/05/01 10:03:28;;;;;;;46.33;23.60;;;;;;;13.07;64.27;101466.31;5175284;28;20061;-80
2021/05/01 10:06:00;;;;;;;19.90;12.23;;;;;;;13.33;60.40;101476.94;5192928;28;20111;-80
2021/05/01 10:08:31;;;;;;;15.27;11.60;;;;;;;13.45;62.22;101466.66;5180930;28;20022;-79
2021/05/01 10:11:13;;;;;;;15.77;10.05;;;;;;;13.61;53.80;101466.66;5175800;28;20101;-81
2021/05/01 10:13:53;;;;;;;13.48;8.13;;;;;;;13.45;52.57;101466.66;5172159;28;20073;-81
2021/05/01 10:16:25;;;;;;;14.10;8.63;;;;;;;13.55;57.52;101461.94;5186825;28;20125;-81
2021/05/01 10:19:09;;;;;;;14.43;8.63;;;;;;;13.65;55.84;101464.44;5185497;28;20076;-81
2021/05/01 10:21:42;;;;;;;13.18;8.15;;;;;;;13.61;52.66;101463.97;5166770;28;20022;-80
2021/05/01 10:24:13;;;;;;;14.10;8.88;;;;;;;13.77;59.98;101454.16;5166077;28;20555;-80
2021/05/01 10:26:48;;;;;;;13.93;9.23;;;;;;;14.30;62.04;101456.13;5154289;28;20117;-81
2021/05/01 10:29:37;;;;;;;13.77;8.75;;;;;;;13.97;53.75;101455.44;5184118;28;20115;-81
2021/05/01 10:32:15;;;;;;;16.20;8.63;;;;;;;13.93;50.51;101460.34;5165941;28;20073;-81
2021/05/01 10:34:47;;;;;;;14.75;8.43;;;;;;;13.76;53.34;101456.03;5178962;28;20027;-81
2021/05/01 10:37:18;;;;;;;12.88;8.70;;;;;;;14.22;51.12;101446.25;5164666;28;20030;-81
2021/05/01 10:39:56;;;;;;;12.52;8.40;;;;;;;14.49;53.91;101438.72;5185379;28;20033;-80
2021/05/01 10:42:27;;;;;;;12.32;8.32;;;;;;;14.96;49.99;101438.56;5170178;28;20030;-81
2021/05/01 10:44:59;;;;;;;12.30;8.13;;;;;;;14.65;49.30;101454.81;5174462;28;20448;-80
2021/05/01 10:47:30;;;;;;;11.93;9.43;;;;;;;13.91;52.23;101445.34;5177824;28;20029;-79
2021/05/01 10:50:19;;;;;;;17.38;10.60;;;;;;;13.56;55.85;101442.06;5189795;28;20029;-80
2021/05/01 10:52:50;;;;;;;21.23;9.77;;;;;;;13.29;56.30;101445.97;5159330;28;20037;-81
2021/05/01 10:55:21;;;;;;;18.83;10.13;;;;;;;13.23;57.67;101451.19;5189058;28;20483;-81
2021/05/01 10:57:57;;;;;;;13.68;9.80;;;;;;;12.54;59.87;101448.72;5172045;28;20045;-81
2021/05/01 11:00:43;;;;;;;15.00;10.07;;;;;;;12.56;59.79;101437.81;5169064;28;20096;-82
2021/05/01 11:03:15;;;;;;;19.97;12.00;;;;;;;12.11;73.15;101444.38;5169899;28;20036;-80
2021/05/01 11:05:47;;;;;;;17.40;12.55;;;;;;;11.87;78.36;101451.31;5177485;28;20025;-80
2021/05/01 11:08:32;;;;;;;19.08;11.68;;;;;;;11.54;86.84;101447.56;5189341;28;20049;-80
2021/05/01 11:11:03;;;;;;;15.50;11.63;;;;;;;11.36;78.38;101449.47;5190447;28;20506;-79
2021/05/01 11:13:34;;;;;;;19.60;11.93;;;;;;;11.22;82.50;101452.69;5170909;28;20058;-79
2021/05/01 11:16:08;;;;;;;21.48;11.85;;;;;;;10.98;97.38;101446.13;5181216;28;20636;-79
2021/05/01 11:18:39;;;;;;;24.80;12.55;;;;;;;10.80;100.00;101451.50;5188453;28;20169;-78
2021/05/01 11:21:11;;;;;;;17.73;11.50;;;;;;;10.76;100.00;101455.50;5185118;28;20494;-79
2021/05/01 11:23:42;;;;;;;18.85;11.38;;;;;;;10.83;100.00;101445.81;5167271;28;20032;-79
2021/05/01 11:26:12;;;;;;;18.05;11.10;;;;;;;10.68;100.00;101446.50;5180358;28;20104;-79
2021/05/01 11:28:44;;;;;;;22.85;11.60;;;;;;;10.76;100.00;101443.91;5177875;28;20079;-80